createdAt,value
2022-08-26T00:01:19.034Z,100381.84
2022-08-26T00:03:55.410Z,100375.03
2022-08-26T00:06:21.995Z,100380.13
2022-08-26T00:08:48.927Z,100374.97
2022-08-26T00:11:15.258Z,100376.06
2022-08-26T00:13:52.893Z,100377.22
2022-08-26T00:16:19.732Z,100380.38
2022-08-26T00:18:46.369Z,100383.19
2022-08-26T00:21:12.720Z,100378.75
2022-08-26T00:23:39.440Z,100376.66
2022-08-26T00:26:06.682Z,100375.44
2022-08-26T00:28:35.382Z,100374.66
2022-08-26T00:31:01.883Z,100373.19
2022-08-26T00:33:28.357Z,100375.50
2022-08-26T00:35:54.936Z,100375.72
2022-08-26T00:38:22.255Z,100369.91
2022-08-26T00:40:53.743Z,100363.56
2022-08-26T00:43:21.783Z,100364.19
2022-08-26T00:46:14.010Z,100376.63
2022-08-26T00:48:43.826Z,100370.16
2022-08-26T00:51:21.331Z,100371.63
2022-08-26T00:53:53.589Z,100364.75
2022-08-26T00:56:29.203Z,100369.38
2022-08-26T00:58:58.700Z,100371.03
2022-08-26T01:01:25.422Z,100368.84
2022-08-26T01:03:52.392Z,100371.53
2022-08-26T01:06:19.542Z,100371.91
2022-08-26T01:08:45.916Z,100373.00
2022-08-26T01:11:12.651Z,100363.44
2022-08-26T01:13:39.973Z,100362.38
2022-08-26T01:16:13.197Z,100369.38
2022-08-26T01:18:41.597Z,100374.81
2022-08-26T01:21:31.143Z,100374.31
2022-08-26T01:23:58.378Z,100374.69
2022-08-26T01:26:29.676Z,100380.47
2022-08-26T01:28:58.893Z,100378.09
2022-08-26T01:31:29.351Z,100378.34
2022-08-26T01:34:10.317Z,100379.03
2022-08-26T01:36:38.245Z,100380.31
2022-08-26T01:39:06.012Z,100378.97
2022-08-26T01:41:34.913Z,100375.34
2022-08-26T01:44:03.145Z,100374.91
2022-08-26T01:46:30.436Z,100379.31
2022-08-26T01:49:00.398Z,100380.88
2022-08-26T01:51:27.788Z,100380.47
2022-08-26T01:53:54.963Z,100375.97
2022-08-26T01:56:23.827Z,100376.22
2022-08-26T01:59:02.617Z,100375.97
2022-08-26T02:01:29.410Z,100381.63
2022-08-26T02:04:09.952Z,100372.84
2022-08-26T02:06:38.468Z,100376.56
2022-08-26T02:09:06.633Z,100383.06
2022-08-26T02:11:33.903Z,100372.59
2022-08-26T02:14:09.804Z,100368.81
2022-08-26T02:16:39.868Z,100372.09
2022-08-26T02:19:17.029Z,100375.13
2022-08-26T02:21:45.500Z,100371.97
2022-08-26T02:24:19.264Z,100374.00
2022-08-26T02:26:46.889Z,100372.63
2022-08-26T02:29:24.102Z,100380.50
2022-08-26T02:31:51.439Z,100369.41
2022-08-26T02:34:26.183Z,100375.72
2022-08-26T02:37:02.366Z,100367.97
2022-08-26T02:39:31.041Z,100376.03
2022-08-26T02:41:58.392Z,100365.56
2022-08-26T02:44:25.531Z,100373.22
2022-08-26T02:46:52.355Z,100374.66
2022-08-26T02:49:21.621Z,100370.91
2022-08-26T02:51:48.182Z,100366.72
2022-08-26T02:54:14.528Z,100367.50
2022-08-26T02:56:41.107Z,100363.13
2022-08-26T02:59:08.235Z,100364.38
2022-08-26T03:01:36.254Z,100365.56
2022-08-26T03:04:04.674Z,100357.88
2022-08-26T03:06:32.163Z,100348.00
2022-08-26T03:08:59.154Z,100351.47
2022-08-26T03:11:29.621Z,100353.63
2022-08-26T03:13:59.529Z,100350.53
2022-08-26T03:16:32.351Z,100348.94
2022-08-26T03:19:00.333Z,100345.75
2022-08-26T03:21:26.710Z,100354.78
2022-08-26T03:23:53.404Z,100343.91
2022-08-26T03:26:19.909Z,100349.41
2022-08-26T03:28:46.514Z,100346.91
2022-08-26T03:31:12.932Z,100336.16
2022-08-26T03:33:39.490Z,100348.75
2022-08-26T03:36:06.083Z,100337.75
2022-08-26T03:38:32.469Z,100344.41
2022-08-26T03:40:58.825Z,100337.03
2022-08-26T03:43:25.218Z,100335.19
2022-08-26T03:45:51.822Z,100341.94
2022-08-26T03:48:19.005Z,100328.84
2022-08-26T03:50:45.417Z,100333.13
2022-08-26T03:53:15.135Z,100336.84
2022-08-26T03:55:41.632Z,100339.72
2022-08-26T03:58:08.057Z,100341.13
2022-08-26T04:00:34.515Z,100341.47
2022-08-26T04:03:02.564Z,100343.25
2022-08-26T04:05:29.073Z,100339.78
2022-08-26T04:07:55.821Z,100337.84
2022-08-26T04:10:29.139Z,100336.97
2022-08-26T04:12:58.884Z,100334.09
2022-08-26T04:15:26.326Z,100334.09
2022-08-26T04:17:53.051Z,100338.72
2022-08-26T04:20:19.513Z,100342.84
2022-08-26T04:22:46.137Z,100338.38
2022-08-26T04:25:12.881Z,100335.97
2022-08-26T04:27:39.253Z,100331.66
2022-08-26T04:30:08.142Z,100335.44
2022-08-26T04:32:35.265Z,100337.75
2022-08-26T04:35:01.892Z,100334.81
2022-08-26T04:37:28.307Z,100332.78
2022-08-26T04:39:54.813Z,100328.59
2022-08-26T04:42:23.303Z,100331.88
2022-08-26T04:44:52.593Z,100348.91
2022-08-26T04:47:19.013Z,100336.13
2022-08-26T04:49:45.477Z,100340.84
2022-08-26T04:52:11.859Z,100341.84
2022-08-26T04:54:39.001Z,100339.25
2022-08-26T04:57:08.462Z,100344.50
2022-08-26T04:59:38.597Z,100341.75
2022-08-26T05:02:06.410Z,100345.91
2022-08-26T05:04:33.377Z,100344.84
2022-08-26T05:07:02.299Z,100346.97
2022-08-26T05:09:29.344Z,100340.50
2022-08-26T05:11:57.058Z,100341.75
2022-08-26T05:14:23.508Z,100347.06
2022-08-26T05:16:50.128Z,100348.22
2022-08-26T05:19:18.985Z,100347.06
2022-08-26T05:21:47.254Z,100350.53
2022-08-26T05:24:14.256Z,100341.75
2022-08-26T05:26:40.852Z,100333.25
2022-08-26T05:29:07.558Z,100341.53
2022-08-26T05:31:34.713Z,100342.72
2022-08-26T05:34:03.701Z,100344.31
2022-08-26T05:36:32.269Z,100342.41
2022-08-26T05:38:58.942Z,100350.09
2022-08-26T05:41:36.295Z,100358.63
2022-08-26T05:44:06.306Z,100354.16
2022-08-26T05:46:33.808Z,100355.56
2022-08-26T05:49:01.128Z,100356.63
2022-08-26T05:51:27.518Z,100350.84
2022-08-26T05:53:57.047Z,100343.94
2022-08-26T05:56:25.888Z,100346.69
2022-08-26T05:58:52.290Z,100356.94
2022-08-26T06:01:21.622Z,100360.41
2022-08-26T06:03:52.141Z,100364.44
2022-08-26T06:06:27.246Z,100358.25
2022-08-26T06:08:55.159Z,100353.06
2022-08-26T06:11:24.079Z,100359.03
2022-08-26T06:13:57.964Z,100351.06
2022-08-26T06:16:28.162Z,100352.75
2022-08-26T06:18:54.908Z,100350.94
2022-08-26T06:21:28.166Z,100359.84
2022-08-26T06:23:58.492Z,100355.25
2022-08-26T06:26:25.485Z,100356.09
2022-08-26T06:28:51.842Z,100356.97
2022-08-26T06:31:18.682Z,100360.16
2022-08-26T06:33:45.146Z,100361.72
2022-08-26T06:36:20.703Z,100357.78
2022-08-26T06:38:48.445Z,100361.66
2022-08-26T06:41:16.435Z,100362.38
2022-08-26T06:43:42.817Z,100356.81
2022-08-26T06:46:12.070Z,100360.75
2022-08-26T06:48:39.246Z,100363.88
2022-08-26T06:51:15.130Z,100362.59
2022-08-26T06:53:43.704Z,100364.19
2022-08-26T06:56:11.239Z,100364.56
2022-08-26T06:58:39.938Z,100369.34
2022-08-26T07:01:16.209Z,100377.31
2022-08-26T07:03:45.368Z,100361.56
2022-08-26T07:06:13.361Z,100364.78
2022-08-26T07:08:39.983Z,100373.09
2022-08-26T07:11:09.319Z,100371.50
2022-08-26T07:13:36.305Z,100369.59
2022-08-26T07:16:07.021Z,100372.75
2022-08-26T07:18:36.813Z,100374.75
2022-08-26T07:21:08.498Z,100378.28
2022-08-26T07:23:35.153Z,100380.22
2022-08-26T07:26:13.565Z,100386.13
2022-08-26T07:28:40.575Z,100390.50
2022-08-26T07:31:09.644Z,100392.53
2022-08-26T07:33:37.638Z,100394.94
2022-08-26T07:36:07.229Z,100396.16
2022-08-26T07:38:34.646Z,100402.97
2022-08-26T07:41:01.056Z,100405.34
2022-08-26T07:43:29.346Z,100411.75
2022-08-26T07:45:55.977Z,100414.50
2022-08-26T07:48:22.456Z,100422.84
2022-08-26T07:50:50.586Z,100415.16
2022-08-26T07:53:18.146Z,100420.31
2022-08-26T07:55:46.274Z,100414.59
2022-08-26T07:58:12.734Z,100414.88
2022-08-26T08:00:39.141Z,100419.19
2022-08-26T08:03:06.178Z,100419.47
2022-08-26T08:05:33.769Z,100417.91
2022-08-26T08:08:27.263Z,100416.16
2022-08-26T08:10:49.482Z,100412.34
2022-08-26T08:13:16.013Z,100413.97
2022-08-26T08:15:42.557Z,100409.91
2022-08-26T08:18:14.043Z,100414.06
2022-08-26T08:20:47.629Z,100415.25
2022-08-26T08:23:21.089Z,100418.31
2022-08-26T08:25:48.071Z,100424.41
2022-08-26T08:28:15.069Z,100418.97
2022-08-26T08:30:42.023Z,100420.59
2022-08-26T08:33:08.971Z,100422.25
2022-08-26T08:35:37.116Z,100427.84
2022-08-26T08:38:07.036Z,100418.09
2022-08-26T08:40:33.604Z,100423.22
2022-08-26T08:43:09.466Z,100425.63
2022-08-26T08:45:47.245Z,100425.63
2022-08-26T08:48:28.042Z,100423.19
2022-08-26T08:51:03.915Z,100420.84
2022-08-26T08:53:38.318Z,100430.75
2022-08-26T08:56:37.274Z,100430.84
2022-08-26T08:59:15.172Z,100426.84
2022-08-26T09:01:41.573Z,100422.00
2022-08-26T09:04:27.894Z,100422.75
2022-08-26T09:09:38.248Z,100420.56
2022-08-26T09:12:11.164Z,100426.16
2022-08-26T09:14:37.549Z,100426.09
2022-08-26T09:17:17.599Z,100429.72
2022-08-26T09:19:52.120Z,100427.03
2022-08-26T09:22:37.074Z,100431.59
2022-08-26T09:25:11.228Z,100429.06
2022-08-26T09:27:40.545Z,100417.47
2022-08-26T09:30:08.288Z,100422.56
2022-08-26T09:32:38.780Z,100422.22
2022-08-26T09:35:24.079Z,100411.56
2022-08-26T09:40:27.092Z,100413.75
2022-08-26T09:43:10.910Z,100406.50
2022-08-26T09:45:39.169Z,100410.47
2022-08-26T09:48:06.543Z,100411.94
2022-08-26T09:50:49.190Z,100407.63
2022-08-26T09:53:17.677Z,100406.03
2022-08-26T09:55:51.403Z,100406.03
2022-08-26T09:58:37.828Z,100399.75
2022-08-26T10:01:14.668Z,100405.78
2022-08-26T10:03:42.838Z,100401.06
2022-08-26T10:06:18.194Z,100402.56
2022-08-26T10:08:58.592Z,100398.28
2022-08-26T10:11:37.868Z,100384.47
2022-08-26T10:14:14.037Z,100395.81
2022-08-26T10:16:41.470Z,100386.00
2022-08-26T10:19:16.621Z,100379.16
2022-08-26T10:22:05.739Z,100377.47
2022-08-26T10:24:42.792Z,100385.06
2022-08-26T10:27:21.530Z,100369.50
2022-08-26T10:29:51.689Z,100377.22
2022-08-26T10:32:25.930Z,100371.03
2022-08-26T10:34:54.313Z,100376.28
2022-08-26T10:37:26.994Z,100374.97
2022-08-26T10:40:02.474Z,100367.28
2022-08-26T10:42:38.554Z,100363.19
2022-08-26T10:45:11.902Z,100361.59
2022-08-26T10:47:58.465Z,100357.72
2022-08-26T10:50:30.950Z,100360.09
2022-08-26T10:53:32.906Z,100351.94
2022-08-26T10:56:15.751Z,100353.22
2022-08-26T10:59:06.397Z,100359.28
2022-08-26T11:01:50.851Z,100358.91
2022-08-26T11:04:34.870Z,100356.78
2022-08-26T11:07:37.459Z,100361.56
2022-08-26T11:10:08.637Z,100362.59
2022-08-26T11:12:35.113Z,100357.38
2022-08-26T11:15:09.991Z,100355.44
2022-08-26T11:17:45.458Z,100356.91
2022-08-26T11:20:30.122Z,100355.81
2022-08-26T11:23:35.383Z,100366.81
2022-08-26T11:26:07.777Z,100359.91
2022-08-26T11:28:49.925Z,100354.97
2022-08-26T11:31:19.364Z,100358.31
2022-08-26T11:33:51.192Z,100355.13
2022-08-26T11:36:45.563Z,100347.56
2022-08-26T11:39:29.284Z,100348.34
2022-08-26T11:42:01.374Z,100354.81
2022-08-26T11:44:38.777Z,100347.75
2022-08-26T11:47:07.784Z,100351.84
2022-08-26T11:49:38.032Z,100350.66
2022-08-26T11:52:22.510Z,100339.00
2022-08-26T11:55:06.581Z,100331.59
2022-08-26T11:57:34.932Z,100333.44
2022-08-26T12:00:02.362Z,100333.13
2022-08-26T12:02:28.916Z,100328.66
2022-08-26T12:04:56.740Z,100326.75
2022-08-26T12:07:27.153Z,100324.94
2022-08-26T12:09:58.709Z,100318.06
2022-08-26T12:12:34.688Z,100312.56
2022-08-26T12:15:20.477Z,100304.03
2022-08-26T12:17:53.419Z,100304.56
2022-08-26T12:20:40.900Z,100303.25
2022-08-26T12:23:07.357Z,100300.19
2022-08-26T12:25:35.954Z,100299.91
2022-08-26T12:28:05.508Z,100295.47
2022-08-26T12:30:31.969Z,100299.16
2022-08-26T12:33:22.957Z,100295.69
2022-08-26T12:35:54.393Z,100293.22
2022-08-26T12:38:23.840Z,100286.28
2022-08-26T12:40:50.340Z,100278.34
2022-08-26T12:43:38.766Z,100274.69
2022-08-26T12:46:06.746Z,100275.25
2022-08-26T12:48:36.489Z,100267.16
2022-08-26T12:51:06.011Z,100270.59
2022-08-26T12:53:35.456Z,100273.94
2022-08-26T12:56:17.133Z,100278.19
2022-08-26T12:58:43.896Z,100270.66
2022-08-26T13:01:10.328Z,100267.16
2022-08-26T13:03:36.737Z,100280.72
2022-08-26T13:06:15.926Z,100275.13
2022-08-26T13:08:45.415Z,100288.41
2022-08-26T13:11:19.109Z,100279.47
2022-08-26T13:13:50.054Z,100276.75
2022-08-26T13:16:16.481Z,100282.81
2022-08-26T13:18:42.902Z,100283.34
2022-08-26T13:21:28.212Z,100280.91
2022-08-26T13:24:09.707Z,100278.50
2022-08-26T13:26:36.107Z,100285.56
2022-08-26T13:29:04.520Z,100277.13
2022-08-26T13:31:33.809Z,100287.31
2022-08-26T13:34:02.252Z,100285.56
2022-08-26T13:36:29.134Z,100289.06
2022-08-26T13:38:55.568Z,100293.31
2022-08-26T13:41:29.084Z,100290.56
2022-08-26T13:43:56.534Z,100296.53
2022-08-26T13:46:25.905Z,100291.19
2022-08-26T13:48:52.342Z,100289.28
2022-08-26T13:51:18.855Z,100285.47
2022-08-26T13:53:45.192Z,100284.94
2022-08-26T13:56:11.830Z,100289.00
2022-08-26T13:58:38.390Z,100279.50
2022-08-26T14:01:04.777Z,100282.06
2022-08-26T14:03:31.225Z,100275.28
2022-08-26T14:05:57.608Z,100278.88
2022-08-26T14:08:24.192Z,100268.56
2022-08-26T14:10:50.650Z,100283.53
2022-08-26T14:13:17.134Z,100285.38
2022-08-26T14:15:43.536Z,100289.19
2022-08-26T14:18:13.545Z,100285.22
2022-08-26T14:20:48.440Z,100281.44
2022-08-26T14:23:14.926Z,100288.41
2022-08-26T14:25:41.735Z,100282.63
2022-08-26T14:28:08.109Z,100286.56
2022-08-26T14:30:34.936Z,100279.28
2022-08-26T14:33:01.316Z,100275.88
2022-08-26T14:35:30.241Z,100273.22
2022-08-26T14:37:57.141Z,100273.38
2022-08-26T14:40:31.096Z,100262.94
2022-08-26T14:42:59.203Z,100256.09
2022-08-26T14:45:27.448Z,100264.34
2022-08-26T14:47:55.195Z,100251.56
2022-08-26T14:50:23.351Z,100253.97
2022-08-26T14:52:50.828Z,100262.22
2022-08-26T14:55:17.205Z,100256.09
2022-08-26T14:57:43.534Z,100238.41
2022-08-26T15:00:10.450Z,100254.22
2022-08-26T15:02:36.856Z,100253.69
2022-08-26T15:05:03.463Z,100260.63
2022-08-26T15:07:29.835Z,100251.88
2022-08-26T15:09:56.169Z,100257.22
2022-08-26T15:12:22.510Z,100266.72
2022-08-26T15:14:48.839Z,100285.56
2022-08-26T15:17:15.255Z,100288.63
2022-08-26T15:19:41.585Z,100283.53
2022-08-26T15:22:07.919Z,100291.91
2022-08-26T15:24:34.789Z,100316.13
2022-08-26T15:27:01.144Z,100316.78
2022-08-26T15:29:27.486Z,100298.78
2022-08-26T15:31:55.274Z,100310.00
2022-08-26T15:34:23.783Z,100316.69
2022-08-26T15:36:50.106Z,100315.34
2022-08-26T15:39:17.187Z,100313.78
2022-08-26T15:41:43.622Z,100313.97
2022-08-26T15:44:11.282Z,100330.63
2022-08-26T15:46:38.721Z,100336.09
2022-08-26T15:49:05.685Z,100339.81
2022-08-26T15:51:35.102Z,100338.19
2022-08-26T15:54:11.831Z,100330.44
2022-08-26T15:56:38.490Z,100332.25
2022-08-26T15:59:06.615Z,100349.25
2022-08-26T16:01:33.548Z,100369.22
2022-08-26T16:04:00.995Z,100376.75
2022-08-26T16:06:31.427Z,100393.22
2022-08-26T16:08:58.188Z,100404.03
2022-08-26T16:11:25.479Z,100405.00
2022-08-26T16:13:52.308Z,100398.72
2022-08-26T16:16:18.852Z,100401.75
2022-08-26T16:18:45.583Z,100399.09
2022-08-26T16:21:20.515Z,100396.28
2022-08-26T16:23:47.628Z,100392.88
2022-08-26T16:26:19.955Z,100396.75
2022-08-26T16:28:47.060Z,100386.84
2022-08-26T16:31:13.845Z,100372.22
2022-08-26T16:33:40.363Z,100362.88
2022-08-26T16:36:08.346Z,100349.84
2022-08-26T16:38:36.306Z,100345.34
2022-08-26T16:41:03.389Z,100342.44
2022-08-26T16:43:29.735Z,100334.22
2022-08-26T16:45:56.939Z,100328.88
2022-08-26T16:48:23.404Z,100336.47
2022-08-26T16:50:50.525Z,100343.44
2022-08-26T16:53:16.989Z,100355.25
2022-08-26T16:55:47.997Z,100368.28
2022-08-26T16:58:14.689Z,100360.66
2022-08-26T17:00:41.095Z,100367.06
2022-08-26T17:03:07.653Z,100355.34
2022-08-26T17:05:34.169Z,100352.13
2022-08-26T17:08:00.952Z,100352.25
2022-08-26T17:10:28.728Z,100355.50
2022-08-26T17:12:55.357Z,100351.81
2022-08-26T17:15:21.864Z,100358.81
2022-08-26T17:17:48.186Z,100350.59
2022-08-26T17:20:16.541Z,100350.56
2022-08-26T17:22:46.526Z,100352.03
2022-08-26T17:25:16.534Z,100344.94
2022-08-26T17:27:43.012Z,100349.25
2022-08-26T17:30:10.374Z,100358.44
2022-08-26T17:32:36.852Z,100356.78
2022-08-26T17:35:04.739Z,100356.84
2022-08-26T17:37:31.229Z,100362.44
2022-08-26T17:39:57.709Z,100353.00
2022-08-26T17:42:31.616Z,100355.25
2022-08-26T17:44:58.474Z,100351.19
2022-08-26T17:47:24.823Z,100354.38
2022-08-26T17:49:51.317Z,100358.47
2022-08-26T17:52:17.660Z,100364.91
2022-08-26T17:54:44.010Z,100370.31
2022-08-26T17:57:10.705Z,100371.00
2022-08-26T17:59:37.327Z,100381.44
2022-08-26T18:02:07.256Z,100374.66
2022-08-26T18:04:33.595Z,100381.41
2022-08-26T18:07:00.078Z,100379.75
2022-08-26T18:09:26.499Z,100380.19
2022-08-26T18:11:52.826Z,100384.91
2022-08-26T18:14:19.203Z,100382.50
2022-08-26T18:16:45.538Z,100384.44
2022-08-26T18:19:11.909Z,100389.97
2022-08-26T18:21:38.262Z,100401.66
2022-08-26T18:24:04.966Z,100402.59
2022-08-26T18:26:35.654Z,100410.34
2022-08-26T18:29:02.881Z,100409.44
2022-08-26T18:31:30.001Z,100410.91
2022-08-26T18:33:58.503Z,100421.19
2022-08-26T18:36:28.611Z,100420.44
2022-08-26T18:38:55.943Z,100422.88
2022-08-26T18:41:24.725Z,100424.72
2022-08-26T18:43:52.528Z,100428.03
2022-08-26T18:46:20.446Z,100438.72
2022-08-26T18:48:51.010Z,100436.66
2022-08-26T18:51:20.796Z,100437.34
2022-08-26T18:53:47.182Z,100441.53
2022-08-26T18:56:16.621Z,100430.63
2022-08-26T18:58:45.494Z,100434.13
2022-08-26T19:01:13.261Z,100443.47
2022-08-26T19:03:40.046Z,100439.97
2022-08-26T19:06:06.829Z,100438.47
2022-08-26T19:08:33.187Z,100446.97
2022-08-26T19:11:00.242Z,100450.22
2022-08-26T19:13:26.691Z,100449.53
2022-08-26T19:15:53.032Z,100451.16
2022-08-26T19:18:19.383Z,100443.31
2022-08-26T19:20:46.907Z,100446.88
2022-08-26T19:23:30.823Z,100446.88
2022-08-26T19:25:58.322Z,100461.41
2022-08-26T19:28:24.750Z,100457.81
2022-08-26T19:30:53.109Z,100456.53
2022-08-26T19:33:19.858Z,100456.47
2022-08-26T19:35:46.260Z,100455.66
2022-08-26T19:38:13.739Z,100457.91
2022-08-26T19:40:40.809Z,100451.50
2022-08-26T19:43:07.840Z,100455.78
2022-08-26T19:45:35.018Z,100453.56
2022-08-26T19:48:02.511Z,100457.50
2022-08-26T19:50:31.938Z,100460.50
2022-08-26T19:52:59.112Z,100453.94
2022-08-26T19:55:25.671Z,100465.47
2022-08-26T19:57:52.303Z,100459.50
2022-08-26T20:00:22.072Z,100461.81
2022-08-26T20:02:48.455Z,100463.91
2022-08-26T20:05:15.878Z,100469.25
2022-08-26T20:07:42.611Z,100468.47
2022-08-26T20:10:11.798Z,100468.47
2022-08-26T20:12:38.853Z,100469.06
2022-08-26T20:15:05.823Z,100464.34
2022-08-26T20:17:32.846Z,100478.13
2022-08-26T20:19:59.185Z,100477.31
2022-08-26T20:22:25.525Z,100477.94
2022-08-26T20:24:51.879Z,100483.03
2022-08-26T20:27:18.227Z,100479.13
2022-08-26T20:29:44.550Z,100485.72
2022-08-26T20:32:10.916Z,100478.69
2022-08-26T20:34:37.472Z,100488.25
2022-08-26T20:37:04.405Z,100495.88
2022-08-26T20:39:30.757Z,100492.22
2022-08-26T20:41:58.541Z,100478.53
2022-08-26T20:44:26.181Z,100494.28
2022-08-26T20:46:52.687Z,100490.88
2022-08-26T20:49:19.040Z,100490.69
2022-08-26T20:51:48.550Z,100494.75
2022-08-26T20:54:14.885Z,100499.28
2022-08-26T20:56:41.239Z,100500.28
2022-08-26T20:59:08.099Z,100502.03
2022-08-26T21:01:36.517Z,100500.91
2022-08-26T21:04:09.485Z,100504.44
2022-08-26T21:06:36.429Z,100503.69
2022-08-26T21:09:05.238Z,100511.22
2022-08-26T21:11:32.043Z,100512.22
2022-08-26T21:14:06.739Z,100515.97
2022-08-26T21:16:35.298Z,100511.09
2022-08-26T21:19:02.450Z,100524.75
2022-08-26T21:21:28.890Z,100527.69
2022-08-26T21:23:55.571Z,100527.78
2022-08-26T21:26:22.603Z,100533.22
2022-08-26T21:28:49.442Z,100523.78
2022-08-26T21:31:18.490Z,100518.38
2022-08-26T21:33:44.865Z,100519.72
2022-08-26T21:36:12.695Z,100516.69
2022-08-26T21:38:39.978Z,100510.38
2022-08-26T21:41:15.194Z,100524.41
2022-08-26T21:43:42.657Z,100522.19
2022-08-26T21:46:11.841Z,100528.41
2022-08-26T21:48:39.543Z,100519.63
2022-08-26T21:51:06.563Z,100521.59
2022-08-26T21:53:32.945Z,100519.19
2022-08-26T21:55:59.399Z,100518.41
2022-08-26T21:58:25.782Z,100514.81
2022-08-26T22:00:52.282Z,100509.16
2022-08-26T22:03:18.667Z,100514.66
2022-08-26T22:05:47.385Z,100515.50
2022-08-26T22:08:13.730Z,100524.09
2022-08-26T22:10:41.498Z,100528.56
2022-08-26T22:13:11.190Z,100533.34
2022-08-26T22:15:37.583Z,100524.91
2022-08-26T22:18:05.058Z,100536.88
2022-08-26T22:20:31.537Z,100536.44
2022-08-26T22:22:58.602Z,100539.91
2022-08-26T22:25:25.505Z,100536.53
2022-08-26T22:27:51.857Z,100539.81
2022-08-26T22:30:18.421Z,100542.66
2022-08-26T22:32:45.050Z,100542.56
2022-08-26T22:35:29.046Z,100538.94
2022-08-26T22:37:57.197Z,100535.38
2022-08-26T22:40:23.729Z,100534.47
2022-08-26T22:42:57.926Z,100531.56
2022-08-26T22:45:26.539Z,100538.50
2022-08-26T22:47:52.932Z,100535.03
2022-08-26T22:50:19.362Z,100531.13
2022-08-26T22:52:45.710Z,100536.63
2022-08-26T22:55:12.048Z,100532.34
2022-08-26T22:57:38.389Z,100534.13
2022-08-26T23:00:05.354Z,100531.66
2022-08-26T23:02:31.974Z,100533.88
2022-08-26T23:04:58.312Z,100528.00
2022-08-26T23:07:24.675Z,100529.69
2022-08-26T23:09:51.009Z,100540.44
2022-08-26T23:12:17.365Z,100535.72
2022-08-26T23:14:43.696Z,100533.50
2022-08-26T23:17:11.819Z,100535.19
2022-08-26T23:19:38.146Z,100542.41
2022-08-26T23:22:04.630Z,100539.56
2022-08-26T23:24:31.599Z,100532.81
2022-08-26T23:26:58.143Z,100536.19
2022-08-26T23:29:24.504Z,100525.97
2022-08-26T23:31:50.926Z,100530.34
2022-08-26T23:34:17.316Z,100527.38
2022-08-26T23:36:44.610Z,100524.16
2022-08-26T23:39:12.814Z,100522.41
2022-08-26T23:41:39.254Z,100514.03
2022-08-26T23:44:05.922Z,100511.75
2022-08-26T23:46:34.421Z,100510.81
2022-08-26T23:49:01.126Z,100504.19
2022-08-26T23:51:27.459Z,100502.63
2022-08-26T23:53:53.841Z,100508.13
2022-08-26T23:56:20.249Z,100502.16
2022-08-26T23:58:47.078Z,100503.06
